Time;durP1;ratioP1;P1;durP2;ratioP2;P2;SDS_P1;SDS_P2;PMS_P1;PMS_P2;Temp;Humidity;BMP_temperature;BMP_pressure;BME280_temperature;BME280_humidity;BME280_pressure;Samples;Min_cycle;Max_cycle;Signal;HPM_P1;HPM_P2
2022/09/17 00:00:42;;;;;;;10.63;8.47;;;;;;;;;;755084;185;919231;-57
2022/09/17 00:03:08;;;;;;;10.10;8.10;;;;;;;;;;754690;184;919818;-57
2022/09/17 00:05:36;;;;;;;12.70;8.60;;;;;;;;;;747383;184;918903;-57
2022/09/17 00:08:00;;;;;;;9.60;8.60;;;;;;;;;;747051;185;917742;-57
2022/09/17 00:10:26;;;;;;;13.63;8.40;;;;;;;;;;757230;185;921022;-57
2022/09/17 00:12:52;;;;;;;8.60;7.23;;;;;;;;;;749228;185;918443;-57
2022/09/17 00:15:18;;;;;;;11.43;8.73;;;;;;;;;;748970;185;918706;-57
2022/09/17 00:17:44;;;;;;;9.80;7.80;;;;;;;;;;758397;185;919039;-57
2022/09/17 00:20:09;;;;;;;10.60;7.67;;;;;;;;;;754364;185;851007;-57
2022/09/17 00:22:35;;;;;;;10.37;7.50;;;;;;;;;;751868;185;920669;-57
2022/09/17 00:25:01;;;;;;;9.20;7.05;;;;;;;;;;753034;185;919631;-56
2022/09/17 00:27:27;;;;;;;9.83;6.73;;;;;;;;;;754019;185;919555;-57
2022/09/17 00:29:53;;;;;;;10.13;7.10;;;;;;;;;;754244;185;916043;-57
2022/09/17 00:32:19;;;;;;;10.17;6.53;;;;;;;;;;756539;185;918936;-57
2022/09/17 00:34:45;;;;;;;16.70;8.27;;;;;;;;;;755533;184;919611;-57
2022/09/17 00:37:10;;;;;;;8.63;6.87;;;;;;;;;;750209;180;918632;-57
2022/09/17 00:39:36;;;;;;;12.73;9.57;;;;;;;;;;752910;185;907780;-57
2022/09/17 00:42:09;;;;;;;9.77;7.63;;;;;;;;;;756587;180;918816;-57
2022/09/17 00:44:34;;;;;;;11.30;7.77;;;;;;;;;;752895;180;917036;-56
2022/09/17 00:47:00;;;;;;;12.27;6.70;;;;;;;;;;754597;184;918589;-56
2022/09/17 00:49:26;;;;;;;7.30;6.20;;;;;;;;;;754663;182;918235;-56
2022/09/17 00:51:56;;;;;;;8.38;6.68;;;;;;;;;;755126;182;922103;-57
2022/09/17 00:54:20;;;;;;;9.90;6.20;;;;;;;;;;759006;184;919273;-57
2022/09/17 00:56:46;;;;;;;12.68;6.03;;;;;;;;;;750066;184;919087;-56
2022/09/17 00:59:12;;;;;;;8.23;6.90;;;;;;;;;;756255;182;818438;-57
2022/09/17 01:01:38;;;;;;;8.87;5.90;;;;;;;;;;757844;184;916082;-56
2022/09/17 01:04:04;;;;;;;8.88;6.95;;;;;;;;;;753467;182;921447;-57
2022/09/17 01:06:34;;;;;;;11.17;6.70;;;;;;;;;;754113;186;818376;-56
2022/09/17 01:09:01;;;;;;;9.67;6.20;;;;;;;;;;755507;184;818548;-57
2022/09/17 01:11:30;;;;;;;7.40;5.50;;;;;;;;;;751344;184;919267;-57
2022/09/17 01:14:02;;;;;;;9.20;6.80;;;;;;;;;;753771;185;918676;-56
2022/09/17 01:16:32;;;;;;;10.40;7.17;;;;;;;;;;753118;184;792484;-56
2022/09/17 01:19:01;;;;;;;6.97;5.80;;;;;;;;;;760739;185;917240;-56
2022/09/17 01:21:32;;;;;;;10.00;6.50;;;;;;;;;;748582;184;918270;-56
2022/09/17 01:24:04;;;;;;;8.50;5.80;;;;;;;;;;758656;184;917776;-56
2022/09/17 01:26:51;;;;;;;11.70;6.90;;;;;;;;;;752017;184;934650;-57
2022/09/17 01:29:31;;;;;;;9.27;6.70;;;;;;;;;;753323;182;1019299;-57
2022/09/17 01:31:58;;;;;;;8.60;6.60;;;;;;;;;;735868;184;918067;-57
2022/09/17 01:34:26;;;;;;;8.07;6.90;;;;;;;;;;758540;185;816487;-57
2022/09/17 01:36:51;;;;;;;9.23;6.57;;;;;;;;;;748081;185;922649;-56
2022/09/17 01:39:17;;;;;;;9.63;7.03;;;;;;;;;;755335;184;919368;-57
2022/09/17 01:41:45;;;;;;;10.27;7.47;;;;;;;;;;761773;184;918926;-57
2022/09/17 01:44:15;;;;;;;8.73;6.57;;;;;;;;;;757250;184;919518;-57
2022/09/17 01:46:43;;;;;;;10.27;6.50;;;;;;;;;;746691;185;919275;-57
2022/09/17 01:49:09;;;;;;;9.60;7.00;;;;;;;;;;750200;185;920108;-57
2022/09/17 01:51:36;;;;;;;10.13;8.40;;;;;;;;;;752685;185;919737;-56
2022/09/17 01:54:03;;;;;;;8.10;6.40;;;;;;;;;;743305;187;919441;-56
2022/09/17 01:56:33;;;;;;;11.30;6.87;;;;;;;;;;748833;185;919849;-56
2022/09/17 01:59:03;;;;;;;10.83;7.10;;;;;;;;;;747755;186;927429;-56
2022/09/17 02:01:29;;;;;;;9.60;8.17;;;;;;;;;;753114;185;918980;-57
2022/09/17 02:03:56;;;;;;;9.60;6.40;;;;;;;;;;756249;184;919590;-56
2022/09/17 02:06:22;;;;;;;10.17;7.00;;;;;;;;;;754696;185;921078;-57
2022/09/17 02:08:48;;;;;;;10.90;6.77;;;;;;;;;;751130;184;920618;-56
2022/09/17 02:11:14;;;;;;;11.00;7.17;;;;;;;;;;764044;182;920469;-56
2022/09/17 02:13:40;;;;;;;12.00;7.20;;;;;;;;;;752377;184;919807;-56
2022/09/17 02:16:07;;;;;;;7.93;6.00;;;;;;;;;;756186;184;919656;-57
2022/09/17 02:18:36;;;;;;;9.33;6.63;;;;;;;;;;754296;184;945389;-56
2022/09/17 02:21:02;;;;;;;8.03;6.30;;;;;;;;;;748536;186;917489;-56
2022/09/17 02:23:27;;;;;;;12.37;7.23;;;;;;;;;;756051;184;918150;-57
2022/09/17 02:25:54;;;;;;;9.90;6.87;;;;;;;;;;762336;181;879378;-56
2022/09/17 02:28:31;;;;;;;8.50;6.33;;;;;;;;;;749509;185;915014;-56
2022/09/17 02:30:57;;;;;;;9.70;6.60;;;;;;;;;;743086;185;2045150;-56
2022/09/17 02:33:22;;;;;;;8.85;6.47;;;;;;;;;;754604;184;914301;-56
2022/09/17 02:35:48;;;;;;;7.75;6.05;;;;;;;;;;755858;185;917446;-56
2022/09/17 02:38:14;;;;;;;8.37;5.60;;;;;;;;;;749780;180;932472;-56
2022/09/17 02:40:41;;;;;;;7.70;6.17;;;;;;;;;;756401;184;919005;-57
2022/09/17 02:43:07;;;;;;;8.80;6.37;;;;;;;;;;746584;185;924745;-56
2022/09/17 02:45:48;;;;;;;10.63;6.00;;;;;;;;;;756436;185;922747;-55
2022/09/17 02:48:19;;;;;;;8.70;5.83;;;;;;;;;;756653;184;917410;-55
2022/09/17 02:51:00;;;;;;;9.87;6.27;;;;;;;;;;748834;184;919206;-57
2022/09/17 02:53:30;;;;;;;8.60;6.53;;;;;;;;;;761026;182;921045;-56
2022/09/17 02:55:59;;;;;;;12.50;7.00;;;;;;;;;;750253;185;818453;-55
2022/09/17 02:58:28;;;;;;;9.13;6.10;;;;;;;;;;747828;182;919024;-56
2022/09/17 03:00:53;;;;;;;9.73;6.70;;;;;;;;;;759336;184;918047;-56
2022/09/17 03:03:20;;;;;;;7.50;5.50;;;;;;;;;;753073;184;918343;-56
2022/09/17 03:05:46;;;;;;;10.10;6.87;;;;;;;;;;752988;184;914260;-57
2022/09/17 03:08:13;;;;;;;10.77;7.00;;;;;;;;;;753963;185;918765;-56
2022/09/17 03:10:38;;;;;;;8.20;6.20;;;;;;;;;;758210;184;918935;-57
2022/09/17 03:13:03;;;;;;;11.23;7.83;;;;;;;;;;751740;182;815386;-56
2022/09/17 03:15:29;;;;;;;12.33;7.07;;;;;;;;;;754569;184;916108;-56
2022/09/17 03:17:55;;;;;;;9.90;7.43;;;;;;;;;;767774;182;818136;-56
2022/09/17 03:20:21;;;;;;;9.07;7.03;;;;;;;;;;754498;184;918954;-56
2022/09/17 03:22:47;;;;;;;10.77;6.30;;;;;;;;;;749388;184;918954;-57
2022/09/17 03:25:13;;;;;;;9.07;6.57;;;;;;;;;;755689;184;921135;-56
2022/09/17 03:27:38;;;;;;;8.10;6.40;;;;;;;;;;753111;181;917739;-56
2022/09/17 03:30:05;;;;;;;8.87;6.60;;;;;;;;;;753557;184;915948;-56
2022/09/17 03:32:31;;;;;;;10.80;6.43;;;;;;;;;;759310;183;911813;-55
2022/09/17 03:34:56;;;;;;;8.57;6.15;;;;;;;;;;750178;181;876731;-56
2022/09/17 03:37:22;;;;;;;8.00;5.73;;;;;;;;;;756999;184;917931;-56
2022/09/17 03:39:49;;;;;;;7.87;5.82;;;;;;;;;;754932;184;919023;-57
2022/09/17 03:42:15;;;;;;;12.20;7.67;;;;;;;;;;755633;185;916609;-56
2022/09/17 03:44:41;;;;;;;10.33;6.23;;;;;;;;;;755719;184;918883;-57
2022/09/17 03:47:06;;;;;;;15.87;6.93;;;;;;;;;;747912;185;917392;-56
2022/09/17 03:49:32;;;;;;;10.43;6.50;;;;;;;;;;759346;184;920073;-56
2022/09/17 03:51:58;;;;;;;9.30;7.10;;;;;;;;;;753708;184;917343;-56
2022/09/17 03:54:24;;;;;;;9.97;7.53;;;;;;;;;;753591;184;915687;-56
2022/09/17 03:56:50;;;;;;;12.97;7.87;;;;;;;;;;753116;184;920007;-56
2022/09/17 03:59:16;;;;;;;13.80;8.30;;;;;;;;;;754977;184;918677;-56
2022/09/17 04:01:41;;;;;;;10.57;6.73;;;;;;;;;;753159;185;912559;-56
2022/09/17 04:04:07;;;;;;;11.33;7.83;;;;;;;;;;754699;185;920404;-56
2022/09/17 04:06:33;;;;;;;14.67;8.67;;;;;;;;;;753230;184;915845;-56
2022/09/17 04:08:59;;;;;;;14.33;9.17;;;;;;;;;;753746;184;902679;-56
2022/09/17 04:11:25;;;;;;;10.50;8.53;;;;;;;;;;747900;183;821599;-56
2022/09/17 04:13:51;;;;;;;12.80;8.77;;;;;;;;;;753862;180;816672;-56
2022/09/17 04:16:17;;;;;;;13.40;8.30;;;;;;;;;;754542;182;897913;-56
2022/09/17 04:18:42;;;;;;;10.73;7.60;;;;;;;;;;754733;180;917145;-56
2022/09/17 04:21:08;;;;;;;14.50;7.55;;;;;;;;;;753189;184;1013132;-56
2022/09/17 04:23:34;;;;;;;15.33;8.13;;;;;;;;;;754222;184;919725;-56
2022/09/17 04:26:00;;;;;;;11.80;8.57;;;;;;;;;;754770;184;918437;-56
2022/09/17 04:28:26;;;;;;;11.20;7.63;;;;;;;;;;758868;181;818596;-56
2022/09/17 04:30:52;;;;;;;14.13;7.97;;;;;;;;;;751591;181;919409;-56
2022/09/17 04:33:17;;;;;;;10.15;8.05;;;;;;;;;;756700;184;919479;-56
2022/09/17 04:35:43;;;;;;;11.67;7.70;;;;;;;;;;749023;184;1020257;-56
2022/09/17 04:38:09;;;;;;;13.77;8.30;;;;;;;;;;762107;182;920697;-56
2022/09/17 04:40:35;;;;;;;11.93;7.13;;;;;;;;;;754464;184;919754;-56
2022/09/17 04:43:02;;;;;;;13.17;8.03;;;;;;;;;;752889;182;918761;-56
2022/09/17 04:45:27;;;;;;;15.77;10.63;;;;;;;;;;754390;184;821806;-56
2022/09/17 04:47:52;;;;;;;11.02;7.78;;;;;;;;;;754310;180;918969;-56
2022/09/17 04:50:18;;;;;;;11.97;9.10;;;;;;;;;;748435;184;919061;-56
2022/09/17 04:52:44;;;;;;;19.17;8.68;;;;;;;;;;754808;184;919469;-56
2022/09/17 04:55:10;;;;;;;15.40;9.57;;;;;;;;;;741927;188;919268;-56
2022/09/17 04:57:36;;;;;;;13.43;8.30;;;;;;;;;;754076;184;919061;-56
2022/09/17 05:00:03;;;;;;;17.10;8.70;;;;;;;;;;758804;184;918356;-56
2022/09/17 05:02:28;;;;;;;13.10;8.40;;;;;;;;;;760976;184;911255;-55
2022/09/17 05:04:55;;;;;;;14.53;8.00;;;;;;;;;;754526;182;911767;-56
2022/09/17 05:07:20;;;;;;;14.67;8.83;;;;;;;;;;748220;185;918665;-57
2022/09/17 05:09:46;;;;;;;12.07;8.97;;;;;;;;;;760059;184;918255;-56
2022/09/17 05:12:12;;;;;;;15.83;8.83;;;;;;;;;;752502;185;917635;-56
2022/09/17 05:14:38;;;;;;;12.67;8.23;;;;;;;;;;754633;184;935285;-56
2022/09/17 05:17:03;;;;;;;13.70;9.00;;;;;;;;;;755744;185;899307;-56
2022/09/17 05:19:29;;;;;;;26.27;9.63;;;;;;;;;;751965;184;919101;-57
2022/09/17 05:21:55;;;;;;;20.47;9.97;;;;;;;;;;754055;184;918861;-56
2022/09/17 05:24:21;;;;;;;16.00;8.37;;;;;;;;;;752603;182;911587;-55
2022/09/17 05:26:47;;;;;;;14.60;9.30;;;;;;;;;;748454;185;910611;-57
2022/09/17 05:29:13;;;;;;;15.77;9.85;;;;;;;;;;753588;184;918299;-56
2022/09/17 05:31:38;;;;;;;20.23;9.40;;;;;;;;;;750588;184;919056;-57
2022/09/17 05:34:04;;;;;;;17.33;10.23;;;;;;;;;;753826;184;919050;-56
2022/09/17 05:36:30;;;;;;;20.83;10.50;;;;;;;;;;754241;184;919264;-55
2022/09/17 05:38:56;;;;;;;20.00;9.37;;;;;;;;;;753989;182;919199;-57
2022/09/17 05:41:22;;;;;;;15.90;10.20;;;;;;;;;;760598;184;920354;-57
2022/09/17 05:43:48;;;;;;;14.57;9.90;;;;;;;;;;755782;184;818826;-56
2022/09/17 05:46:13;;;;;;;27.43;11.50;;;;;;;;;;753572;182;919130;-56
2022/09/17 05:48:39;;;;;;;44.88;15.38;;;;;;;;;;753475;184;893687;-57
2022/09/17 05:51:05;;;;;;;162.80;36.20;;;;;;;;;;748637;184;918697;-56
2022/09/17 05:53:31;;;;;;;123.10;27.52;;;;;;;;;;752997;184;924970;-57
2022/09/17 05:55:58;;;;;;;26.60;11.60;;;;;;;;;;750055;184;921875;-57
2022/09/17 05:58:24;;;;;;;22.47;11.53;;;;;;;;;;751305;185;918197;-56
2022/09/17 06:00:51;;;;;;;15.40;10.60;;;;;;;;;;747086;185;914581;-57
2022/09/17 06:03:17;;;;;;;21.73;11.90;;;;;;;;;;749496;185;920070;-57
2022/09/17 06:05:43;;;;;;;20.07;12.90;;;;;;;;;;753878;184;919437;-56
2022/09/17 06:08:09;;;;;;;21.67;12.77;;;;;;;;;;735445;185;919470;-56
2022/09/17 06:10:36;;;;;;;22.15;12.18;;;;;;;;;;754306;184;919953;-57
2022/09/17 06:13:01;;;;;;;21.40;11.80;;;;;;;;;;754446;182;919884;-56
2022/09/17 06:15:27;;;;;;;19.97;11.77;;;;;;;;;;757907;184;917594;-56
2022/09/17 06:17:53;;;;;;;22.97;11.90;;;;;;;;;;750069;185;922933;-56
2022/09/17 06:20:19;;;;;;;20.37;12.57;;;;;;;;;;751879;181;1008948;-57
2022/09/17 06:22:45;;;;;;;22.47;11.93;;;;;;;;;;759633;184;927432;-57
2022/09/17 06:25:11;;;;;;;23.30;12.83;;;;;;;;;;753254;184;921133;-56
2022/09/17 06:27:36;;;;;;;32.23;12.47;;;;;;;;;;753062;184;891936;-56
2022/09/17 06:30:02;;;;;;;23.23;13.60;;;;;;;;;;759300;184;817096;-56
2022/09/17 06:32:28;;;;;;;30.27;13.43;;;;;;;;;;752652;181;815214;-57
2022/09/17 06:34:56;;;;;;;25.90;14.43;;;;;;;;;;750503;184;936498;-57
2022/09/17 06:37:21;;;;;;;24.57;14.93;;;;;;;;;;758038;184;919161;-56
2022/09/17 06:39:46;;;;;;;32.57;13.80;;;;;;;;;;743089;185;918322;-57
2022/09/17 06:42:12;;;;;;;26.80;13.73;;;;;;;;;;755384;184;918975;-57
2022/09/17 06:44:39;;;;;;;25.10;13.77;;;;;;;;;;752441;184;876193;-57
2022/09/17 06:47:04;;;;;;;30.73;15.93;;;;;;;;;;757239;184;919624;-57
2022/09/17 06:49:30;;;;;;;28.00;16.30;;;;;;;;;;755307;184;894866;-57
2022/09/17 06:51:56;;;;;;;25.77;15.20;;;;;;;;;;758394;182;916397;-57
2022/09/17 06:54:22;;;;;;;25.80;14.57;;;;;;;;;;760151;184;923263;-57
2022/09/17 06:56:47;;;;;;;34.85;14.55;;;;;;;;;;755503;180;868064;-57
2022/09/17 06:59:13;;;;;;;28.90;14.50;;;;;;;;;;753650;184;919858;-57
2022/09/17 07:01:39;;;;;;;24.87;14.60;;;;;;;;;;751803;184;920361;-60
2022/09/17 07:04:05;;;;;;;22.30;14.70;;;;;;;;;;756231;184;917251;-58
2022/09/17 07:06:31;;;;;;;24.83;15.00;;;;;;;;;;749873;183;922348;-57
2022/09/17 07:08:57;;;;;;;26.70;15.70;;;;;;;;;;754716;184;919282;-58
2022/09/17 07:11:23;;;;;;;21.70;14.40;;;;;;;;;;767168;182;818637;-57
2022/09/17 07:13:48;;;;;;;23.90;14.23;;;;;;;;;;754665;184;916172;-57
2022/09/17 07:16:14;;;;;;;19.37;14.40;;;;;;;;;;746979;184;916573;-57
2022/09/17 07:18:40;;;;;;;30.10;13.40;;;;;;;;;;756602;184;919470;-57
2022/09/17 07:21:06;;;;;;;19.83;12.20;;;;;;;;;;752762;184;917757;-57
2022/09/17 07:23:32;;;;;;;20.20;12.10;;;;;;;;;;758370;184;642877;-58
2022/09/17 07:25:58;;;;;;;20.90;13.20;;;;;;;;;;759592;185;627100;-57
2022/09/17 07:28:24;;;;;;;15.00;12.37;;;;;;;;;;761872;184;625912;-57
2022/09/17 07:30:49;;;;;;;17.27;11.83;;;;;;;;;;760238;184;632542;-58
2022/09/17 07:33:15;;;;;;;12.93;11.47;;;;;;;;;;754670;185;918981;-57
2022/09/17 07:35:41;;;;;;;18.10;10.63;;;;;;;;;;748874;185;919847;-57
2022/09/17 07:38:07;;;;;;;13.40;10.60;;;;;;;;;;748139;185;841703;-57
2022/09/17 07:40:33;;;;;;;11.30;8.90;;;;;;;;;;756880;183;918657;-57
2022/09/17 07:42:59;;;;;;;11.90;9.18;;;;;;;;;;758130;185;918437;-57
2022/09/17 07:45:24;;;;;;;11.73;9.47;;;;;;;;;;755377;184;917700;-57
2022/09/17 07:47:50;;;;;;;10.87;9.00;;;;;;;;;;755063;185;918678;-57
2022/09/17 07:50:16;;;;;;;10.80;8.75;;;;;;;;;;753858;185;926011;-57
2022/09/17 07:52:45;;;;;;;9.27;8.23;;;;;;;;;;753245;184;920034;-57
2022/09/17 07:55:11;;;;;;;16.58;8.85;;;;;;;;;;749770;185;918598;-57
2022/09/17 07:57:37;;;;;;;15.52;8.45;;;;;;;;;;750958;185;861215;-57
2022/09/17 08:00:03;;;;;;;12.27;9.20;;;;;;;;;;755861;184;917442;-57
2022/09/17 08:02:29;;;;;;;10.17;6.70;;;;;;;;;;750145;184;919006;-57
2022/09/17 08:04:56;;;;;;;9.93;6.47;;;;;;;;;;756289;184;918632;-57
2022/09/17 08:07:21;;;;;;;9.33;7.20;;;;;;;;;;761094;183;819997;-57
2022/09/17 08:09:47;;;;;;;7.73;6.70;;;;;;;;;;753405;184;921057;-56
2022/09/17 08:12:13;;;;;;;13.27;7.72;;;;;;;;;;752244;184;1020920;-57
2022/09/17 08:14:38;;;;;;;7.23;6.00;;;;;;;;;;754517;184;919663;-56
2022/09/17 08:17:04;;;;;;;8.80;5.90;;;;;;;;;;748544;184;836101;-57
2022/09/17 08:19:31;;;;;;;11.15;7.03;;;;;;;;;;753920;184;919792;-57
2022/09/17 08:21:56;;;;;;;7.67;5.40;;;;;;;;;;757579;185;817529;-57
2022/09/17 08:24:22;;;;;;;8.80;5.53;;;;;;;;;;749423;182;918841;-57
2022/09/17 08:26:48;;;;;;;6.30;5.67;;;;;;;;;;756803;182;918930;-57
2022/09/17 08:29:14;;;;;;;10.00;4.60;;;;;;;;;;751023;185;920583;-57
2022/09/17 08:31:39;;;;;;;9.80;5.30;;;;;;;;;;758504;184;913456;-57
2022/09/17 08:34:06;;;;;;;11.03;5.07;;;;;;;;;;754060;184;893871;-56
2022/09/17 08:36:32;;;;;;;7.80;5.07;;;;;;;;;;752260;184;919460;-57
2022/09/17 08:38:58;;;;;;;7.40;4.43;;;;;;;;;;754534;184;815631;-57
2022/09/17 08:41:26;;;;;;;9.47;4.90;;;;;;;;;;757721;183;917383;-57
2022/09/17 08:43:51;;;;;;;6.33;4.57;;;;;;;;;;755801;184;917557;-56
2022/09/17 08:46:18;;;;;;;15.32;4.40;;;;;;;;;;753149;184;920181;-55
2022/09/17 08:48:44;;;;;;;8.03;5.13;;;;;;;;;;751654;184;916383;-55
2022/09/17 08:51:12;;;;;;;5.40;4.63;;;;;;;;;;750077;184;919000;-57
2022/09/17 08:53:39;;;;;;;7.57;4.23;;;;;;;;;;753628;184;920617;-58
2022/09/17 08:56:20;;;;;;;5.40;3.93;;;;;;;;;;758178;184;818235;-57
2022/09/17 08:59:01;;;;;;;6.50;4.37;;;;;;;;;;760147;184;816426;-57
2022/09/17 09:01:32;;;;;;;5.80;3.80;;;;;;;;;;755580;185;919041;-58
2022/09/17 09:04:03;;;;;;;5.53;3.77;;;;;;;;;;755501;184;919161;-57
2022/09/17 09:06:29;;;;;;;7.90;4.67;;;;;;;;;;753956;184;919544;-57
2022/09/17 09:08:56;;;;;;;4.13;3.27;;;;;;;;;;748800;182;813039;-58
2022/09/17 09:11:25;;;;;;;6.63;3.80;;;;;;;;;;753295;184;916093;-57
2022/09/17 09:13:48;;;;;;;9.80;2.87;;;;;;;;;;754425;184;913814;-57
2022/09/17 09:16:15;;;;;;;5.93;3.50;;;;;;;;;;756038;184;911998;-57
2022/09/17 09:18:41;;;;;;;4.80;3.20;;;;;;;;;;759546;184;916929;-57
2022/09/17 09:21:07;;;;;;;7.77;3.30;;;;;;;;;;757838;184;919058;-57
2022/09/17 09:23:43;;;;;;;6.53;3.25;;;;;;;;;;752532;184;919980;-58
2022/09/17 09:26:09;;;;;;;12.77;3.60;;;;;;;;;;754552;181;916217;-57
2022/09/17 09:28:35;;;;;;;10.23;3.87;;;;;;;;;;757983;184;820385;-55
2022/09/17 09:31:22;;;;;;;5.60;3.30;;;;;;;;;;752563;184;919421;-55
2022/09/17 09:33:47;;;;;;;4.33;2.90;;;;;;;;;;749569;185;916192;-57
2022/09/17 09:36:13;;;;;;;4.47;3.30;;;;;;;;;;755233;184;919176;-57
2022/09/17 09:38:40;;;;;;;6.45;3.20;;;;;;;;;;753808;184;919755;-57
2022/09/17 09:41:06;;;;;;;5.33;2.67;;;;;;;;;;758826;183;917795;-58
2022/09/17 09:43:43;;;;;;;8.07;3.07;;;;;;;;;;750505;184;920543;-57
2022/09/17 09:46:10;;;;;;;5.83;3.27;;;;;;;;;;756469;184;918450;-57
2022/09/17 09:48:46;;;;;;;5.07;3.87;;;;;;;;;;753977;184;920965;-57
2022/09/17 09:51:24;;;;;;;4.37;3.22;;;;;;;;;;757361;184;919482;-57
2022/09/17 09:53:51;;;;;;;8.97;3.87;;;;;;;;;;753697;184;919403;-57
2022/09/17 09:56:33;;;;;;;3.93;3.00;;;;;;;;;;753248;184;920739;-57
2022/09/17 09:58:58;;;;;;;4.07;2.90;;;;;;;;;;750323;184;920639;-56
2022/09/17 10:01:24;;;;;;;6.73;3.10;;;;;;;;;;752368;184;920551;-56
2022/09/17 10:03:50;;;;;;;9.10;3.23;;;;;;;;;;749782;184;919828;-57
2022/09/17 10:06:16;;;;;;;4.20;3.43;;;;;;;;;;751511;185;816548;-57
2022/09/17 10:08:42;;;;;;;7.60;3.20;;;;;;;;;;748448;184;818223;-56
2022/09/17 10:11:25;;;;;;;7.33;3.40;;;;;;;;;;753009;184;918166;-56
2022/09/17 10:13:51;;;;;;;5.43;3.50;;;;;;;;;;749272;185;840363;-56
2022/09/17 10:16:17;;;;;;;6.40;3.60;;;;;;;;;;758125;184;925935;-56
2022/09/17 10:18:43;;;;;;;5.93;3.60;;;;;;;;;;748628;185;937055;-56
2022/09/17 10:21:23;;;;;;;6.20;3.75;;;;;;;;;;753127;184;915733;-56
2022/09/17 10:23:49;;;;;;;4.40;3.20;;;;;;;;;;749802;184;920758;-56
2022/09/17 10:26:21;;;;;;;7.03;3.27;;;;;;;;;;761212;184;924199;-56
2022/09/17 10:28:47;;;;;;;5.40;2.80;;;;;;;;;;762945;183;920090;-56
2022/09/17 10:31:13;;;;;;;10.33;4.40;;;;;;;;;;751462;184;921454;-56
2022/09/17 10:33:40;;;;;;;4.73;3.50;;;;;;;;;;750400;183;818519;-56
2022/09/17 10:36:07;;;;;;;6.80;3.67;;;;;;;;;;754959;184;918424;-56
2022/09/17 10:38:32;;;;;;;6.40;2.80;;;;;;;;;;755000;183;819679;-57
2022/09/17 10:41:04;;;;;;;7.00;2.80;;;;;;;;;;752872;182;918633;-56
2022/09/17 10:43:29;;;;;;;6.97;3.40;;;;;;;;;;754743;184;913296;-57
2022/09/17 10:45:56;;;;;;;4.43;2.83;;;;;;;;;;759967;181;713973;-55
2022/09/17 10:48:21;;;;;;;5.23;2.93;;;;;;;;;;754639;184;919416;-56
2022/09/17 10:50:47;;;;;;;5.43;3.80;;;;;;;;;;749548;185;917876;-57
2022/09/17 10:53:14;;;;;;;3.57;3.10;;;;;;;;;;760351;184;817136;-56
2022/09/17 10:55:44;;;;;;;4.70;3.10;;;;;;;;;;750241;184;919406;-56
2022/09/17 10:58:10;;;;;;;4.53;2.72;;;;;;;;;;756672;184;918797;-56
2022/09/17 11:00:37;;;;;;;5.10;2.47;;;;;;;;;;751520;185;920557;-56
2022/09/17 11:03:14;;;;;;;5.43;2.97;;;;;;;;;;756475;183;919668;-56
2022/09/17 11:05:44;;;;;;;4.67;2.70;;;;;;;;;;753115;184;919880;-56
2022/09/17 11:08:12;;;;;;;4.60;2.47;;;;;;;;;;748229;182;915973;-56
2022/09/17 11:10:42;;;;;;;4.10;2.60;;;;;;;;;;751987;182;917157;-56
2022/09/17 11:13:21;;;;;;;4.20;2.23;;;;;;;;;;756321;184;920041;-56
2022/09/17 11:15:50;;;;;;;4.67;2.10;;;;;;;;;;759276;183;919754;-56
2022/09/17 11:18:16;;;;;;;2.93;2.00;;;;;;;;;;753604;183;919430;-55
2022/09/17 11:20:42;;;;;;;4.72;1.95;;;;;;;;;;749116;185;915237;-56
2022/09/17 11:23:27;;;;;;;4.72;1.73;;;;;;;;;;757268;184;851474;-56
2022/09/17 11:25:52;;;;;;;3.73;1.90;;;;;;;;;;759577;182;816703;-56
2022/09/17 11:28:18;;;;;;;2.90;2.50;;;;;;;;;;753069;185;817496;-56
2022/09/17 11:30:45;;;;;;;5.83;3.33;;;;;;;;;;749702;185;814347;-54
2022/09/17 11:33:12;;;;;;;2.93;2.10;;;;;;;;;;754218;184;919144;-56
2022/09/17 11:35:38;;;;;;;4.30;2.57;;;;;;;;;;757534;184;920956;-55
2022/09/17 11:38:06;;;;;;;7.10;3.93;;;;;;;;;;755356;184;925197;-55
2022/09/17 11:40:36;;;;;;;2.73;2.10;;;;;;;;;;753250;184;919150;-56
2022/09/17 11:43:01;;;;;;;4.43;2.70;;;;;;;;;;753960;184;919165;-55
2022/09/17 11:45:29;;;;;;;2.67;2.20;;;;;;;;;;758276;184;810058;-56
2022/09/17 11:47:55;;;;;;;4.20;2.73;;;;;;;;;;755813;183;816022;-56
2022/09/17 11:50:21;;;;;;;7.73;3.03;;;;;;;;;;755314;184;920859;-55
2022/09/17 11:52:50;;;;;;;3.22;2.50;;;;;;;;;;755355;184;919787;-55
2022/09/17 11:55:29;;;;;;;5.30;3.73;;;;;;;;;;748588;184;918943;-55
2022/09/17 11:57:54;;;;;;;4.40;2.70;;;;;;;;;;750543;184;819338;-55
2022/09/17 12:00:21;;;;;;;6.53;3.50;;;;;;;;;;749966;184;919601;-56
2022/09/17 12:02:50;;;;;;;9.87;2.70;;;;;;;;;;752560;185;891691;-55
2022/09/17 12:05:16;;;;;;;4.30;3.10;;;;;;;;;;759235;185;818136;-55
2022/09/17 12:07:47;;;;;;;5.73;2.97;;;;;;;;;;749843;185;816898;-54
2022/09/17 12:10:29;;;;;;;6.63;3.00;;;;;;;;;;755023;184;914763;-56
2022/09/17 12:12:56;;;;;;;3.53;2.77;;;;;;;;;;739260;186;818490;-55
2022/09/17 12:15:22;;;;;;;3.47;2.10;;;;;;;;;;759348;184;915958;-55
2022/09/17 12:17:48;;;;;;;3.23;2.37;;;;;;;;;;755380;184;912584;-56
2022/09/17 12:20:20;;;;;;;4.00;2.80;;;;;;;;;;747989;184;894031;-56
2022/09/17 12:22:46;;;;;;;3.97;2.62;;;;;;;;;;750655;185;801224;-55
2022/09/17 12:25:12;;;;;;;4.40;2.50;;;;;;;;;;758985;184;827918;-56
2022/09/17 12:27:39;;;;;;;3.23;2.30;;;;;;;;;;755138;180;879543;-54
2022/09/17 12:30:14;;;;;;;3.40;2.17;;;;;;;;;;754417;184;820735;-55
2022/09/17 12:32:46;;;;;;;3.30;3.00;;;;;;;;;;752309;184;921558;-55
2022/09/17 12:35:21;;;;;;;4.12;2.30;;;;;;;;;;757744;184;922753;-55
2022/09/17 12:37:53;;;;;;;3.17;2.33;;;;;;;;;;755927;185;819671;-55
2022/09/17 12:40:35;;;;;;;3.40;2.37;;;;;;;;;;751414;184;919871;-55
2022/09/17 12:43:04;;;;;;;7.20;2.33;;;;;;;;;;749345;185;918476;-55
2022/09/17 12:45:45;;;;;;;5.90;2.10;;;;;;;;;;750685;185;932549;-54
2022/09/17 12:48:11;;;;;;;3.77;2.97;;;;;;;;;;751894;183;919729;-55
2022/09/17 12:50:40;;;;;;;6.70;2.87;;;;;;;;;;750757;184;933725;-55
2022/09/17 12:53:07;;;;;;;3.00;2.10;;;;;;;;;;751552;184;818892;-54
2022/09/17 12:55:34;;;;;;;5.03;2.70;;;;;;;;;;751596;184;918884;-55
2022/09/17 12:58:04;;;;;;;2.57;2.07;;;;;;;;;;748795;184;930962;-55
2022/09/17 13:00:31;;;;;;;4.10;2.60;;;;;;;;;;753074;184;816107;-55
2022/09/17 13:02:57;;;;;;;3.37;1.97;;;;;;;;;;751042;184;918820;-54
2022/09/17 13:05:25;;;;;;;3.07;2.60;;;;;;;;;;749978;184;896065;-54
2022/09/17 13:08:05;;;;;;;3.90;2.03;;;;;;;;;;755616;184;881183;-54
2022/09/17 13:10:37;;;;;;;3.90;2.20;;;;;;;;;;746537;185;822690;-55
2022/09/17 13:13:04;;;;;;;4.27;1.97;;;;;;;;;;758705;184;917943;-54
2022/09/17 13:15:45;;;;;;;2.90;2.50;;;;;;;;;;750334;185;827218;-56
2022/09/17 13:18:12;;;;;;;4.40;2.30;;;;;;;;;;749910;185;823637;-55
2022/09/17 13:20:39;;;;;;;3.87;3.00;;;;;;;;;;748854;185;916831;-55
2022/09/17 13:23:04;;;;;;;2.73;2.10;;;;;;;;;;748537;183;809193;-55
2022/09/17 13:25:30;;;;;;;5.50;2.00;;;;;;;;;;755203;181;736169;-55
2022/09/17 13:28:03;;;;;;;3.53;2.43;;;;;;;;;;750770;184;943691;-54
2022/09/17 13:30:28;;;;;;;3.23;2.10;;;;;;;;;;754745;184;746269;-56
2022/09/17 13:32:54;;;;;;;3.77;2.10;;;;;;;;;;751600;184;826283;-55
2022/09/17 13:35:34;;;;;;;5.43;1.80;;;;;;;;;;751312;180;919479;-54
2022/09/17 13:38:00;;;;;;;3.13;2.40;;;;;;;;;;744106;185;816919;-55
2022/09/17 13:40:30;;;;;;;2.90;2.35;;;;;;;;;;746881;185;919953;-55
2022/09/17 13:42:57;;;;;;;3.93;2.13;;;;;;;;;;754128;184;915866;-56
2022/09/17 13:45:23;;;;;;;5.40;2.57;;;;;;;;;;753735;181;921022;-53
2022/09/17 13:47:51;;;;;;;3.00;2.10;;;;;;;;;;754914;184;866318;-56
2022/09/17 13:50:23;;;;;;;3.07;2.57;;;;;;;;;;753911;184;919251;-55
2022/09/17 13:52:49;;;;;;;3.77;2.50;;;;;;;;;;747171;185;918844;-56
2022/09/17 13:55:21;;;;;;;4.17;2.63;;;;;;;;;;752858;181;813020;-55
2022/09/17 13:57:46;;;;;;;2.70;2.20;;;;;;;;;;749694;182;726434;-55
2022/09/17 14:00:12;;;;;;;3.33;2.00;;;;;;;;;;751076;183;816144;-55
2022/09/17 14:02:38;;;;;;;5.00;2.80;;;;;;;;;;754002;184;913157;-55
2022/09/17 14:05:10;;;;;;;3.80;2.60;;;;;;;;;;753531;183;817816;-55
2022/09/17 14:07:36;;;;;;;4.80;2.80;;;;;;;;;;752967;182;896452;-55
2022/09/17 14:10:01;;;;;;;2.53;1.83;;;;;;;;;;755430;183;822601;-55
2022/09/17 14:12:33;;;;;;;4.23;2.20;;;;;;;;;;753296;184;863942;-55
2022/09/17 14:14:59;;;;;;;4.77;2.40;;;;;;;;;;754662;184;921159;-55
2022/09/17 14:17:31;;;;;;;4.47;2.50;;;;;;;;;;750413;182;919823;-55
2022/09/17 14:19:57;;;;;;;3.80;2.80;;;;;;;;;;756490;182;866731;-55
2022/09/17 14:22:22;;;;;;;6.70;3.73;;;;;;;;;;754194;185;838225;-55